createdAt,value
2022-08-28T00:03:59.909Z,101623.34
2022-08-28T00:09:21.919Z,101636.19
2022-08-28T00:14:42.707Z,101630.38
2022-08-28T00:20:07.863Z,101618.28
2022-08-28T00:25:30.517Z,101619.13
2022-08-28T00:30:53.610Z,101610.81
2022-08-28T00:36:14.534Z,101633.53
2022-08-28T00:41:38.831Z,101621.44
2022-08-28T00:47:02.433Z,101625.88
2022-08-28T00:52:26.883Z,101624.06
2022-08-28T00:57:51.282Z,101615.50
2022-08-28T01:03:11.926Z,101621.41
2022-08-28T01:08:35.333Z,101608.25
2022-08-28T01:14:01.947Z,101605.53
2022-08-28T01:19:40.420Z,101603.81
2022-08-28T01:25:05.245Z,101601.34
2022-08-28T01:30:25.886Z,101592.72
2022-08-28T01:35:48.068Z,101594.41
2022-08-28T01:41:11.058Z,101610.81
2022-08-28T01:46:32.748Z,101609.66
2022-08-28T01:51:54.761Z,101611.66
2022-08-28T01:57:17.877Z,101603.94
2022-08-28T02:02:40.096Z,101618.44
2022-08-28T02:08:04.111Z,101607.94
2022-08-28T02:13:25.629Z,101594.03
2022-08-28T02:18:46.373Z,101610.31
2022-08-28T02:24:07.271Z,101614.88
2022-08-28T02:29:28.765Z,101610.09
2022-08-28T02:34:49.627Z,101608.34
2022-08-28T02:40:16.547Z,101615.19
2022-08-28T02:45:37.939Z,101603.78
2022-08-28T02:51:00.500Z,101602.84
2022-08-28T02:56:21.285Z,101601.22
2022-08-28T03:01:42.103Z,101584.81
2022-08-28T03:07:04.297Z,101589.00
2022-08-28T03:12:25.416Z,101606.41
2022-08-28T03:17:49.123Z,101599.53
2022-08-28T03:23:27.879Z,101608.06
2022-08-28T03:28:52.423Z,101594.19
2022-08-28T03:34:13.250Z,101607.13
2022-08-28T03:39:34.449Z,101598.56
2022-08-28T03:44:55.007Z,101593.38
2022-08-28T03:50:17.704Z,101585.66
2022-08-28T03:55:41.900Z,101593.59
2022-08-28T04:01:02.881Z,101591.88
2022-08-28T04:06:23.924Z,101605.06
2022-08-28T04:11:44.640Z,101598.31
2022-08-28T04:17:06.213Z,101589.69
2022-08-28T04:22:27.482Z,101587.69
2022-08-28T04:27:48.598Z,101589.16
2022-08-28T04:33:10.532Z,101575.34
2022-08-28T04:38:31.519Z,101589.91
2022-08-28T04:43:52.956Z,101573.38
2022-08-28T04:49:15.132Z,101605.34
2022-08-28T04:54:36.066Z,101601.09
2022-08-28T04:59:58.644Z,101601.06
2022-08-28T05:05:19.896Z,101608.53
2022-08-28T05:10:43.229Z,101604.06
2022-08-28T05:16:04.665Z,101610.78
2022-08-28T05:21:25.091Z,101606.38
2022-08-28T05:26:48.264Z,101613.09
2022-08-28T05:32:09.496Z,101614.59
2022-08-28T05:37:30.245Z,101599.78
2022-08-28T05:42:54.204Z,101604.13
2022-08-28T05:48:16.214Z,101611.78
2022-08-28T05:53:42.480Z,101605.69
2022-08-28T05:59:05.688Z,101604.88
2022-08-28T06:04:27.707Z,101601.06
2022-08-28T06:09:48.138Z,101618.63
2022-08-28T06:15:09.214Z,101623.28
2022-08-28T06:20:29.806Z,101627.47
2022-08-28T06:25:52.364Z,101623.78
2022-08-28T06:31:23.393Z,101632.31
2022-08-28T06:36:48.579Z,101620.44
2022-08-28T06:42:12.372Z,101647.91
2022-08-28T06:47:32.868Z,101648.38
2022-08-28T06:52:53.643Z,101645.47
2022-08-28T06:58:14.673Z,101647.16
2022-08-28T07:03:35.247Z,101652.72
2022-08-28T07:08:56.148Z,101657.63
2022-08-28T07:14:17.082Z,101643.75
2022-08-28T07:19:37.819Z,101646.72
2022-08-28T07:24:59.061Z,101651.91
2022-08-28T07:30:21.338Z,101652.66
2022-08-28T07:35:46.588Z,101653.53
2022-08-28T07:41:16.287Z,101657.81
2022-08-28T07:46:38.618Z,101645.97
2022-08-28T07:51:59.431Z,101644.88
2022-08-28T07:57:21.175Z,101660.44
2022-08-28T08:02:43.636Z,101662.13
2022-08-28T08:08:04.395Z,101668.41
2022-08-28T08:13:25.528Z,101670.06
2022-08-28T08:18:48.156Z,101694.19
2022-08-28T08:24:08.996Z,101703.50
2022-08-28T08:29:35.444Z,101698.81
2022-08-28T08:34:56.208Z,101700.56
2022-08-28T08:40:19.564Z,101696.19
2022-08-28T08:45:43.167Z,101694.47
2022-08-28T08:51:14.231Z,101700.88
2022-08-28T08:56:35.341Z,101700.94
2022-08-28T09:02:18.123Z,101707.97
2022-08-28T09:07:44.930Z,101695.44
2022-08-28T09:13:25.942Z,101684.84
2022-08-28T09:18:48.447Z,101692.75
2022-08-28T09:24:25.988Z,101697.91
2022-08-28T09:29:55.411Z,101697.06
2022-08-28T09:35:32.985Z,101716.47
2022-08-28T09:41:28.958Z,101692.13
2022-08-28T09:46:52.139Z,101703.63
2022-08-28T09:52:25.143Z,101701.63
2022-08-28T09:57:47.168Z,101690.00
2022-08-28T10:03:21.534Z,101708.78
2022-08-28T10:09:11.848Z,101707.13
2022-08-28T10:14:59.293Z,101704.34
2022-08-28T10:20:31.369Z,101700.16
2022-08-28T10:26:02.908Z,101691.78
2022-08-28T10:31:51.190Z,101701.78
2022-08-28T10:37:36.786Z,101715.16
2022-08-28T10:43:10.531Z,101727.75
2022-08-28T10:48:42.908Z,101727.97
2022-08-28T10:54:12.529Z,101731.03
2022-08-28T10:59:42.382Z,101722.94
2022-08-28T11:05:04.047Z,101715.13
2022-08-28T11:10:36.785Z,101712.03
2022-08-28T11:15:57.338Z,101718.09
2022-08-28T11:21:27.192Z,101709.81
2022-08-28T11:26:58.945Z,101720.25
2022-08-28T11:32:47.012Z,101715.06
2022-08-28T11:38:08.615Z,101727.31
2022-08-28T11:43:28.980Z,101728.56
2022-08-28T11:48:52.258Z,101725.88
2022-08-28T11:54:26.527Z,101741.75
2022-08-28T12:00:01.889Z,101755.50
2022-08-28T12:05:31.407Z,101754.06
2022-08-28T12:10:56.016Z,101759.13
2022-08-28T12:16:16.514Z,101741.91
2022-08-28T12:21:38.923Z,101748.59
2022-08-28T12:27:02.951Z,101749.75
2022-08-28T12:32:46.432Z,101748.84
2022-08-28T12:38:09.319Z,101744.50
2022-08-28T12:43:35.792Z,101739.97
2022-08-28T12:49:05.127Z,101741.94
2022-08-28T12:54:25.844Z,101747.38
2022-08-28T12:59:51.601Z,101729.66
2022-08-28T13:05:26.300Z,101741.94
2022-08-28T13:10:51.487Z,101727.91
2022-08-28T13:16:33.340Z,101734.94
2022-08-28T13:22:00.483Z,101727.81
2022-08-28T13:27:23.468Z,101734.13
2022-08-28T13:32:56.398Z,101729.75
2022-08-28T13:38:19.764Z,101740.25
2022-08-28T13:43:47.023Z,101727.88
2022-08-28T13:49:07.760Z,101722.34
2022-08-28T13:54:28.436Z,101718.94
2022-08-28T13:59:53.553Z,101724.47
2022-08-28T14:05:16.355Z,101719.47
2022-08-28T14:10:37.013Z,101731.41
2022-08-28T14:15:57.957Z,101715.28
2022-08-28T14:21:19.602Z,101722.94
2022-08-28T14:26:40.378Z,101740.09
2022-08-28T14:32:01.892Z,101722.28
2022-08-28T14:37:22.940Z,101728.88
2022-08-28T14:42:43.903Z,101733.25
2022-08-28T14:48:04.724Z,101722.88
2022-08-28T14:53:27.576Z,101724.97
2022-08-28T14:58:48.516Z,101730.47
2022-08-28T15:04:12.675Z,101724.63
2022-08-28T15:09:41.934Z,101721.25
2022-08-28T15:15:04.028Z,101715.69
2022-08-28T15:20:24.825Z,101706.88
2022-08-28T15:25:45.899Z,101717.31
2022-08-28T15:31:06.563Z,101724.66
2022-08-28T15:36:27.056Z,101717.41
2022-08-28T15:41:48.113Z,101716.81
2022-08-28T15:47:09.303Z,101723.56
2022-08-28T15:52:29.832Z,101723.75
2022-08-28T15:57:50.332Z,101723.94
2022-08-28T16:03:10.879Z,101714.94
2022-08-28T16:08:31.883Z,101727.25
2022-08-28T16:13:52.749Z,101711.78
2022-08-28T16:19:13.633Z,101713.66
2022-08-28T16:24:34.806Z,101722.69
2022-08-28T16:29:55.496Z,101725.13
2022-08-28T16:35:17.977Z,101746.72
2022-08-28T16:40:45.748Z,101734.81
2022-08-28T16:46:16.917Z,101724.59
2022-08-28T16:51:39.018Z,101748.03
2022-08-28T16:56:59.544Z,101739.19
2022-08-28T17:02:26.528Z,101734.00
2022-08-28T17:07:48.029Z,101743.63
2022-08-28T17:13:08.707Z,101741.25
2022-08-28T17:18:29.498Z,101748.25
2022-08-28T17:23:50.029Z,101744.09
2022-08-28T17:29:11.011Z,101745.88
2022-08-28T17:34:31.453Z,101744.09
2022-08-28T17:39:53.444Z,101743.41
2022-08-28T17:45:15.157Z,101733.00
2022-08-28T17:50:35.723Z,101742.50
2022-08-28T17:55:56.795Z,101732.22
2022-08-28T18:01:22.480Z,101741.78
2022-08-28T18:06:43.620Z,101751.34
2022-08-28T18:12:06.774Z,101758.41
2022-08-28T18:17:33.364Z,101759.50
2022-08-28T18:22:54.465Z,101776.00
2022-08-28T18:28:22.235Z,101781.16
2022-08-28T18:33:43.032Z,101779.34
2022-08-28T18:39:04.303Z,101793.16
2022-08-28T18:44:25.280Z,101787.06
2022-08-28T18:49:46.527Z,101782.66
2022-08-28T18:55:08.306Z,101780.81
2022-08-28T19:00:30.179Z,101789.41
2022-08-28T19:05:51.942Z,101791.75
2022-08-28T19:11:14.099Z,101791.72
2022-08-28T19:16:35.490Z,101790.75
2022-08-28T19:21:56.754Z,101792.53
2022-08-28T19:27:17.535Z,101813.22
2022-08-28T19:32:38.896Z,101817.44
2022-08-28T19:37:59.548Z,101819.03
2022-08-28T19:43:31.160Z,101825.78
2022-08-28T19:49:10.248Z,101822.19
2022-08-28T19:54:39.329Z,101819.50
2022-08-28T20:00:00.631Z,101824.63
2022-08-28T20:05:38.158Z,101821.22
2022-08-28T20:11:42.440Z,101835.16
2022-08-28T20:17:26.312Z,101842.16
2022-08-28T20:22:48.994Z,101837.00
2022-08-28T20:28:16.648Z,101831.78
2022-08-28T20:33:39.665Z,101837.88
2022-08-28T20:39:06.978Z,101844.78
2022-08-28T20:44:27.539Z,101841.25
2022-08-28T20:49:48.153Z,101841.19
2022-08-28T20:55:09.763Z,101836.88
2022-08-28T21:00:30.673Z,101841.97
2022-08-28T21:05:51.209Z,101848.72
2022-08-28T21:11:11.848Z,101853.97
2022-08-28T21:16:38.081Z,101849.72
2022-08-28T21:21:59.029Z,101844.59
2022-08-28T21:27:19.411Z,101851.44
2022-08-28T21:32:40.229Z,101866.03
2022-08-28T21:38:00.754Z,101863.25
2022-08-28T21:43:21.405Z,101873.63
2022-08-28T21:48:42.525Z,101875.25
2022-08-28T21:54:03.692Z,101883.03
2022-08-28T21:59:24.255Z,101884.81
2022-08-28T22:04:48.996Z,101892.63
2022-08-28T22:10:09.906Z,101895.16
2022-08-28T22:15:31.985Z,101900.44
2022-08-28T22:21:11.431Z,101910.81
2022-08-28T22:26:31.981Z,101894.19
2022-08-28T22:31:52.948Z,101910.63
2022-08-28T22:37:13.713Z,101888.22
2022-08-28T22:42:38.361Z,101907.34
2022-08-28T22:47:59.336Z,101907.41
2022-08-28T22:53:21.260Z,101904.84
2022-08-28T22:58:42.132Z,101915.22
2022-08-28T23:04:04.041Z,101914.41
2022-08-28T23:09:24.668Z,101913.81
2022-08-28T23:14:48.533Z,101920.25
2022-08-28T23:20:12.783Z,101918.72
2022-08-28T23:25:34.363Z,101916.25
2022-08-28T23:30:54.878Z,101921.22
2022-08-28T23:36:15.430Z,101921.06
2022-08-28T23:41:38.613Z,101922.13
2022-08-28T23:47:00.614Z,101928.19
2022-08-28T23:52:24.848Z,101919.50
2022-08-28T23:57:46.910Z,101918.56
